Time;durP1;ratioP1;P1;durP2;ratioP2;P2;SDS_P1;SDS_P2;PMS_P1;PMS_P2;Temp;Humidity;BMP_temperature;BMP_pressure;BME280_temperature;BME280_humidity;BME280_pressure;Samples;Min_cycle;Max_cycle;Signal;HPM_P1;HPM_P2
2023/12/25 00:01:10;;;;;;;17.33;11.60;;;;;;;9.66;58.92;94449.00;4186888;28;20709;-70
2023/12/25 00:03:12;;;;;;;25.27;12.75;;;;;;;9.10;59.89;94469.53;4188887;28;20048;-67
2023/12/25 00:05:14;;;;;;;22.33;13.00;;;;;;;8.81;61.24;94455.03;4189360;28;20048;-69
2023/12/25 00:07:16;;;;;;;23.50;12.73;;;;;;;8.81;61.70;94444.59;4184939;28;20053;-67
2023/12/25 00:09:21;;;;;;;22.50;13.68;;;;;;;8.96;60.75;94455.28;4191185;28;20044;-67
2023/12/25 00:11:23;;;;;;;25.05;14.07;;;;;;;9.07;60.71;94446.34;4188152;28;20056;-71
2023/12/25 00:13:25;;;;;;;22.88;13.15;;;;;;;9.18;60.55;94440.84;4195162;28;20116;-69
2023/12/25 00:15:27;;;;;;;24.58;12.68;;;;;;;9.04;60.71;94450.09;4190109;28;20072;-69
2023/12/25 00:17:29;;;;;;;28.50;15.63;;;;;;;8.17;62.67;94447.38;4184561;28;20486;-69
2023/12/25 00:19:31;;;;;;;30.80;16.00;;;;;;;8.26;63.51;94444.81;4179246;28;20355;-69
2023/12/25 00:21:33;;;;;;;22.98;13.50;;;;;;;8.44;62.63;94435.22;4198282;28;20054;-68
2023/12/25 00:23:35;;;;;;;25.67;13.98;;;;;;;8.66;61.91;94433.06;4192283;28;20140;-68
2023/12/25 00:25:38;;;;;;;24.77;13.25;;;;;;;8.80;62.22;94441.16;4191842;28;20159;-66
2023/12/25 00:27:39;;;;;;;25.00;14.70;;;;;;;8.78;61.26;94440.50;4193729;28;20080;-66
2023/12/25 00:29:41;;;;;;;25.30;14.10;;;;;;;8.59;61.61;94433.69;4182717;28;20053;-68
2023/12/25 00:31:43;;;;;;;25.40;14.80;;;;;;;8.63;62.01;94431.59;4191008;28;20068;-68
2023/12/25 00:33:45;;;;;;;23.98;13.95;;;;;;;8.74;62.15;94430.50;4189724;28;20131;-67
2023/12/25 00:35:47;;;;;;;24.92;14.82;;;;;;;8.82;61.89;94435.78;4188559;28;20044;-69
2023/12/25 00:37:51;;;;;;;25.73;13.45;;;;;;;8.97;61.54;94436.00;4188976;28;20196;-67
2023/12/25 00:39:53;;;;;;;19.77;13.05;;;;;;;9.07;61.00;94433.28;4171789;28;20376;-69
2023/12/25 00:41:54;;;;;;;26.25;13.82;;;;;;;9.10;60.72;94425.13;4189555;28;20487;-66
2023/12/25 00:44:00;;;;;;;24.88;13.95;;;;;;;9.14;60.59;94444.75;4187208;28;20154;-66
2023/12/25 00:46:05;;;;;;;28.02;14.48;;;;;;;8.78;61.32;94435.25;4180349;28;20110;-66
2023/12/25 00:48:07;;;;;;;24.08;13.93;;;;;;;8.71;61.88;94439.47;4189432;28;20110;-67
2023/12/25 00:50:09;;;;;;;24.00;14.32;;;;;;;8.74;62.36;94422.69;4188685;28;20136;-69
2023/12/25 00:52:14;;;;;;;23.83;14.02;;;;;;;8.82;61.77;94441.00;4188271;28;20057;-67
2023/12/25 00:54:15;;;;;;;23.23;14.35;;;;;;;8.72;61.61;94442.91;4190684;28;20455;-69
2023/12/25 00:56:17;;;;;;;22.67;13.85;;;;;;;8.64;62.31;94448.06;4184882;28;20052;-66
2023/12/25 00:58:20;;;;;;;26.35;14.15;;;;;;;8.67;61.83;94440.75;4190886;28;20135;-66
2023/12/25 01:00:23;;;;;;;22.13;14.27;;;;;;;8.74;61.86;94441.78;4189474;28;20044;-68
2023/12/25 01:02:24;;;;;;;23.08;14.30;;;;;;;8.81;61.71;94440.16;4169474;28;20053;-67
2023/12/25 01:04:28;;;;;;;25.27;14.63;;;;;;;8.83;61.66;94442.63;4194773;28;20072;-67
2023/12/25 01:06:30;;;;;;;27.27;14.52;;;;;;;8.84;61.98;94436.44;4193681;28;20136;-66
2023/12/25 01:08:32;;;;;;;25.23;13.70;;;;;;;8.87;61.54;94438.75;4192956;28;20076;-67
2023/12/25 01:10:33;;;;;;;25.42;14.13;;;;;;;8.89;61.69;94441.22;4188131;28;20049;-65
2023/12/25 01:12:35;;;;;;;23.05;14.38;;;;;;;8.93;60.93;94434.69;4193119;28;20132;-67
2023/12/25 01:14:37;;;;;;;23.05;14.23;;;;;;;8.90;61.80;94422.75;4187059;28;20088;-68
2023/12/25 01:16:39;;;;;;;22.20;13.48;;;;;;;8.92;61.65;94433.84;4172960;28;20047;-65
2023/12/25 01:18:43;;;;;;;22.15;13.77;;;;;;;8.96;61.79;94431.75;4186786;28;20045;-69
2023/12/25 01:20:46;;;;;;;21.85;14.00;;;;;;;8.96;61.35;94424.75;4188803;28;20048;-69
2023/12/25 01:22:48;;;;;;;27.98;13.38;;;;;;;8.85;61.61;94426.81;4193428;28;20574;-67
2023/12/25 01:24:50;;;;;;;25.73;13.88;;;;;;;8.87;62.11;94422.25;4179939;28;20130;-68
2023/12/25 01:26:52;;;;;;;20.70;12.90;;;;;;;8.88;61.19;94427.31;4187222;28;20125;-65
2023/12/25 01:28:54;;;;;;;24.63;13.95;;;;;;;8.92;61.12;94426.03;4189139;28;20052;-66
2023/12/25 01:30:56;;;;;;;22.58;13.18;;;;;;;8.89;61.35;94428.97;4193126;28;20570;-68
2023/12/25 01:32:58;;;;;;;25.52;14.40;;;;;;;8.89;61.79;94428.16;4182932;28;20052;-67
2023/12/25 01:35:00;;;;;;;23.75;13.55;;;;;;;8.93;61.14;94425.06;4181138;28;20045;-68
2023/12/25 01:37:04;;;;;;;26.70;14.15;;;;;;;8.92;61.13;94415.56;4188627;28;20407;-67
2023/12/25 01:39:06;;;;;;;20.83;12.90;;;;;;;8.82;61.24;94412.28;4187912;28;20117;-68
2023/12/25 01:41:08;;;;;;;24.08;12.50;;;;;;;8.40;61.68;94431.22;4190743;28;20052;-67
2023/12/25 01:43:19;;;;;;;24.55;12.90;;;;;;;8.41;62.53;94414.66;4190997;28;20142;-67
2023/12/25 01:45:21;;;;;;;19.00;11.57;;;;;;;8.49;61.80;94416.47;4191709;28;20087;-68
2023/12/25 01:47:23;;;;;;;24.45;13.02;;;;;;;8.47;62.28;94413.19;4190487;28;20052;-67
2023/12/25 01:49:25;;;;;;;23.60;13.82;;;;;;;8.41;62.45;94432.91;4192017;28;20153;-66
2023/12/25 01:51:27;;;;;;;19.17;13.18;;;;;;;8.42;62.90;94411.03;4172580;28;20137;-67
2023/12/25 01:53:29;;;;;;;21.85;12.77;;;;;;;8.44;62.83;94411.72;4186229;28;20433;-66
2023/12/25 01:55:31;;;;;;;22.58;12.95;;;;;;;8.26;62.58;94424.78;4188745;28;20915;-66
2023/12/25 01:57:33;;;;;;;28.63;17.90;;;;;;;7.09;65.84;94424.75;4164247;28;20046;-65
2023/12/25 01:59:35;;;;;;;24.33;15.02;;;;;;;7.18;66.56;94418.66;4186842;28;20213;-66
2023/12/25 02:01:37;;;;;;;22.40;14.18;;;;;;;7.39;65.98;94424.44;4171937;28;20131;-67
2023/12/25 02:03:39;;;;;;;26.25;14.50;;;;;;;7.61;65.04;94427.59;4188296;28;20051;-67
2023/12/25 02:05:43;;;;;;;26.58;14.55;;;;;;;7.50;64.87;94431.25;4182602;28;20048;-66
2023/12/25 02:07:46;;;;;;;;;;;;;;;7.48;65.25;94437.56;4164033;28;20045;-65
2023/12/25 02:09:51;;;;;;;30.38;16.55;;;;;;;7.56;65.11;94429.84;4178668;28;19982;-65
2023/12/25 02:11:53;;;;;;;27.83;15.35;;;;;;;7.75;64.50;94416.66;4167400;28;20455;-67
2023/12/25 02:13:58;;;;;;;26.17;14.80;;;;;;;7.93;64.33;94408.03;4189409;28;20351;-67
2023/12/25 02:16:00;;;;;;;22.23;14.15;;;;;;;7.86;63.40;94414.81;4187615;28;20151;-69
2023/12/25 02:18:02;;;;;;;23.38;14.40;;;;;;;7.66;64.87;94437.59;4192790;28;20083;-67
2023/12/25 02:20:05;;;;;;;22.42;14.02;;;;;;;7.60;64.72;94412.94;4164012;28;20053;-67
2023/12/25 02:22:07;;;;;;;23.23;13.73;;;;;;;7.69;64.88;94417.25;4172896;28;20053;-69
2023/12/25 02:24:12;;;;;;;22.65;13.45;;;;;;;7.84;64.29;94420.19;4174848;28;20045;-64
2023/12/25 02:26:14;;;;;;;22.17;13.32;;;;;;;7.96;63.90;94413.78;4185604;28;20134;-68
2023/12/25 02:28:16;;;;;;;20.10;13.02;;;;;;;7.80;64.39;94426.66;4166289;28;20059;-69
2023/12/25 02:30:18;;;;;;;24.60;14.43;;;;;;;7.77;64.28;94417.34;4174264;28;20052;-68
2023/12/25 02:32:21;;;;;;;20.92;13.07;;;;;;;7.89;63.91;94423.13;4174890;28;20418;-69
2023/12/25 02:34:23;;;;;;;27.40;13.98;;;;;;;7.60;64.62;94425.97;4190279;28;20438;-67
2023/12/25 02:36:25;;;;;;;18.25;12.23;;;;;;;7.61;64.67;94432.00;4196864;28;20064;-67
2023/12/25 02:38:27;;;;;;;27.75;12.73;;;;;;;7.68;64.17;94407.81;4188442;28;20590;-67
2023/12/25 02:40:28;;;;;;;23.95;12.18;;;;;;;7.78;64.69;94432.00;4183194;28;20098;-68
2023/12/25 02:42:30;;;;;;;19.13;11.85;;;;;;;7.91;64.06;94415.19;4193522;28;20143;-66
2023/12/25 02:44:32;;;;;;;18.85;11.55;;;;;;;8.00;63.54;94417.72;4192631;28;20438;-66
2023/12/25 02:46:34;;;;;;;21.15;10.95;;;;;;;8.07;63.70;94407.50;4191840;28;20105;-68
2023/12/25 02:48:36;;;;;;;17.95;10.52;;;;;;;8.05;63.51;94406.81;4193084;28;20466;-68
2023/12/25 02:50:38;;;;;;;15.45;9.43;;;;;;;7.73;63.52;94428.22;4189436;28;20146;-67
2023/12/25 02:52:40;;;;;;;18.25;9.88;;;;;;;7.76;63.82;94423.50;4185494;28;20067;-69
2023/12/25 02:54:42;;;;;;;20.63;10.45;;;;;;;7.87;63.54;94408.63;4184119;28;20085;-68
2023/12/25 02:56:43;;;;;;;17.08;9.70;;;;;;;7.92;62.73;94428.06;4186265;28;20055;-68
2023/12/25 02:58:45;;;;;;;18.42;10.25;;;;;;;7.67;63.43;94432.22;4188506;28;20143;-66
2023/12/25 03:00:47;;;;;;;14.30;9.27;;;;;;;7.54;64.12;94434.38;4190742;28;20095;-68
2023/12/25 03:02:49;;;;;;;18.65;9.93;;;;;;;7.60;64.63;94420.75;4189533;28;20098;-67
2023/12/25 03:04:51;;;;;;;16.60;9.73;;;;;;;7.72;64.11;94427.41;4177842;28;20095;-65
2023/12/25 03:06:53;;;;;;;18.00;9.20;;;;;;;7.46;64.05;94445.53;4187508;28;20394;-65
2023/12/25 03:08:55;;;;;;;17.20;9.90;;;;;;;7.00;65.82;94454.28;4180401;28;20049;-67
2023/12/25 03:10:57;;;;;;;19.60;9.70;;;;;;;7.07;66.25;94439.69;4188890;28;20048;-66
2023/12/25 03:12:58;;;;;;;18.52;9.77;;;;;;;7.25;65.93;94426.72;4181321;28;20055;-65
2023/12/25 03:15:00;;;;;;;16.75;10.45;;;;;;;7.44;65.24;94446.66;4191673;28;20044;-67
2023/12/25 03:17:03;;;;;;;17.70;10.25;;;;;;;7.65;64.53;94449.81;4190131;28;20044;-67
2023/12/25 03:19:05;;;;;;;17.58;9.93;;;;;;;7.72;64.10;94448.28;4183403;28;20049;-67
2023/12/25 03:21:08;;;;;;;19.42;10.80;;;;;;;7.78;63.70;94436.41;4189266;28;20422;-67
2023/12/25 03:23:09;;;;;;;18.88;10.32;;;;;;;7.71;63.88;94456.22;4190840;28;20102;-68
2023/12/25 03:25:11;;;;;;;18.02;10.60;;;;;;;7.67;64.11;94460.09;4179089;28;20196;-66
2023/12/25 03:27:13;;;;;;;19.27;10.77;;;;;;;7.69;63.98;94452.94;4191725;28;20410;-67
2023/12/25 03:29:15;;;;;;;19.77;10.95;;;;;;;7.72;63.80;94447.44;4173230;28;20075;-67
2023/12/25 03:31:17;;;;;;;22.38;10.60;;;;;;;7.76;63.90;94461.81;4173544;28;20107;-68
2023/12/25 03:33:19;;;;;;;18.70;10.55;;;;;;;7.56;64.19;94463.72;4191103;28;20090;-67
2023/12/25 03:35:21;;;;;;;19.77;10.75;;;;;;;7.59;64.01;94458.22;4188568;28;20074;-67
2023/12/25 03:37:23;;;;;;;18.67;10.23;;;;;;;7.64;64.02;94450.78;4173836;28;20092;-67
2023/12/25 03:39:25;;;;;;;20.38;9.90;;;;;;;7.70;64.14;94463.25;4187333;28;20084;-67
2023/12/25 03:41:27;;;;;;;20.85;9.43;;;;;;;7.71;63.65;94449.22;4189064;28;20495;-67
2023/12/25 03:43:29;;;;;;;22.35;10.38;;;;;;;7.69;64.11;94474.63;4182102;28;20049;-67
2023/12/25 03:45:30;;;;;;;19.73;10.48;;;;;;;7.53;64.71;94454.41;4189110;28;20116;-67
2023/12/25 03:47:32;;;;;;;16.42;10.05;;;;;;;7.56;64.62;94456.72;4193911;28;20048;-67
2023/12/25 03:49:34;;;;;;;17.42;9.90;;;;;;;7.51;63.86;94474.59;4193212;28;20056;-67
2023/12/25 03:51:36;;;;;;;20.30;10.65;;;;;;;7.17;65.41;94484.78;4171974;28;20310;-67
2023/12/25 03:53:38;;;;;;;17.60;9.45;;;;;;;7.22;65.63;94482.53;4195038;28;20519;-68
2023/12/25 03:55:40;;;;;;;16.48;10.23;;;;;;;7.29;65.35;94488.00;4182915;28;20048;-66
2023/12/25 03:57:42;;;;;;;22.60;11.35;;;;;;;7.28;65.28;94494.19;4170379;28;20516;-67
2023/12/25 03:59:44;;;;;;;16.33;9.77;;;;;;;7.42;64.81;94487.66;4194479;28;20089;-68
2023/12/25 04:01:46;;;;;;;15.70;9.25;;;;;;;7.50;64.39;94477.34;4191028;28;20574;-66
2023/12/25 04:03:47;;;;;;;14.50;8.38;;;;;;;7.56;64.21;94480.19;4194599;28;20123;-67
2023/12/25 04:05:49;;;;;;;18.70;9.02;;;;;;;7.63;63.78;94479.59;4188813;28;20055;-66
2023/12/25 04:07:51;;;;;;;20.10;9.20;;;;;;;7.52;63.92;94489.25;4170296;28;20041;-67
2023/12/25 04:09:54;;;;;;;15.18;8.50;;;;;;;7.07;64.82;94504.81;4191651;28;20052;-67
2023/12/25 04:11:56;;;;;;;14.27;8.55;;;;;;;6.59;66.40;94506.59;4193432;28;20048;-66
2023/12/25 04:13:58;;;;;;;13.60;8.85;;;;;;;6.71;66.70;94508.09;4171126;28;20715;-67
2023/12/25 04:16:00;;;;;;;14.75;7.72;;;;;;;6.91;66.20;94510.63;4186273;28;20083;-68
2023/12/25 04:18:02;;;;;;;15.77;8.82;;;;;;;7.10;65.26;94500.16;4187312;28;20052;-66
2023/12/25 04:20:04;;;;;;;14.95;8.05;;;;;;;7.29;64.63;94504.47;4187135;28;20052;-68
2023/12/25 04:22:06;;;;;;;18.10;8.65;;;;;;;7.45;64.20;94480.38;4188223;28;20041;-68
2023/12/25 04:24:08;;;;;;;15.95;7.63;;;;;;;7.54;63.45;94489.94;4176858;28;20099;-67
2023/12/25 04:26:10;;;;;;;14.23;8.02;;;;;;;7.61;63.37;94498.00;4189157;28;20131;-68
2023/12/25 04:28:12;;;;;;;14.40;7.93;;;;;;;7.63;63.36;94485.63;4192465;28;20076;-67
2023/12/25 04:30:14;;;;;;;12.43;7.85;;;;;;;7.69;63.31;94474.63;4192814;28;20131;-67
2023/12/25 04:32:15;;;;;;;16.35;8.77;;;;;;;7.73;62.89;94489.00;4171593;28;20470;-66
2023/12/25 04:34:17;;;;;;;16.67;8.82;;;;;;;7.83;62.63;94494.19;4191673;28;20444;-68
2023/12/25 04:36:19;;;;;;;14.63;8.55;;;;;;;7.81;62.90;94472.63;4175492;28;20092;-67
2023/12/25 04:38:21;;;;;;;14.40;8.45;;;;;;;7.80;63.02;94487.44;4186835;28;20449;-68
2023/12/25 04:40:23;;;;;;;17.20;9.23;;;;;;;7.50;63.29;94485.16;4190287;28;20102;-69
2023/12/25 04:42:25;;;;;;;12.68;7.82;;;;;;;7.42;63.61;94477.25;4193282;28;20096;-67
2023/12/25 04:44:26;;;;;;;19.40;8.75;;;;;;;7.40;63.86;94485.22;4181335;28;20114;-66
2023/12/25 04:46:29;;;;;;;17.70;7.40;;;;;;;7.39;63.44;94499.22;4195590;28;20486;-69
2023/12/25 04:48:31;;;;;;;16.95;7.82;;;;;;;7.29;64.04;94490.59;4193939;28;20113;-68
2023/12/25 04:50:34;;;;;;;16.00;7.82;;;;;;;7.33;64.03;94491.97;4185416;28;20057;-68
2023/12/25 04:52:36;;;;;;;14.20;7.65;;;;;;;7.16;64.01;94506.56;4194358;28;20044;-69
2023/12/25 04:54:38;;;;;;;15.32;9.88;;;;;;;6.84;65.60;94512.13;4187399;28;20105;-69
2023/12/25 04:56:40;;;;;;;13.00;8.50;;;;;;;6.72;66.07;94501.91;4187898;28;20048;-67
2023/12/25 04:58:43;;;;;;;15.38;7.93;;;;;;;6.88;65.88;94495.28;4186253;28;20053;-66
2023/12/25 05:00:45;;;;;;;14.63;8.10;;;;;;;7.08;65.46;94501.28;4189596;28;20085;-67
2023/12/25 05:02:48;;;;;;;13.13;7.35;;;;;;;7.20;64.37;94494.91;4190579;28;20486;-67
2023/12/25 05:04:50;;;;;;;14.45;7.65;;;;;;;6.98;65.09;94509.91;4195148;28;20128;-65
2023/12/25 05:06:52;;;;;;;16.45;8.25;;;;;;;7.05;65.21;94504.16;4191089;28;20140;-66
2023/12/25 05:08:54;;;;;;;12.90;7.82;;;;;;;7.18;64.70;94496.81;4193646;28;20053;-66
2023/12/25 05:10:56;;;;;;;19.23;8.43;;;;;;;7.21;64.19;94491.34;4172878;28;20049;-67
2023/12/25 05:12:58;;;;;;;15.52;8.18;;;;;;;7.21;64.17;94473.09;4192513;28;20048;-68
2023/12/25 05:14:59;;;;;;;15.75;8.18;;;;;;;7.18;64.44;94479.44;4190145;28;20519;-68
2023/12/25 05:17:02;;;;;;;15.85;8.07;;;;;;;7.24;64.79;94485.84;4187275;28;20466;-68
2023/12/25 05:19:04;;;;;;;13.80;8.38;;;;;;;7.30;64.13;94500.06;4182445;28;20107;-68
2023/12/25 05:21:09;;;;;;;16.80;7.72;;;;;;;7.37;64.24;94516.78;4191456;28;20052;-68
2023/12/25 05:23:11;;;;;;;14.73;7.85;;;;;;;7.42;64.02;94522.38;4194297;28;20045;-66
2023/12/25 05:25:12;;;;;;;15.73;8.10;;;;;;;7.52;63.32;94504.09;4191518;28;20504;-68
2023/12/25 05:27:14;;;;;;;14.75;7.32;;;;;;;7.49;63.48;94525.25;4177607;28;20052;-67
2023/12/25 05:29:16;;;;;;;21.90;8.27;;;;;;;7.46;63.44;94515.09;4172119;28;20068;-67
2023/12/25 05:31:18;;;;;;;13.73;7.35;;;;;;;7.46;63.51;94509.88;4188610;28;20527;-67
2023/12/25 05:33:20;;;;;;;16.05;7.60;;;;;;;7.28;64.33;94517.63;4175819;28;20080;-68
2023/12/25 05:35:23;;;;;;;16.50;7.72;;;;;;;7.24;64.09;94511.06;4174789;28;20069;-68
2023/12/25 05:37:25;;;;;;;13.07;7.30;;;;;;;7.26;64.22;94509.97;4191335;28;20132;-69
2023/12/25 05:39:27;;;;;;;16.10;8.07;;;;;;;7.35;64.29;94508.28;4170238;28;20040;-67
2023/12/25 05:41:29;;;;;;;15.27;7.68;;;;;;;7.41;63.45;94504.28;4192028;28;20083;-67
2023/12/25 05:43:31;;;;;;;18.98;8.00;;;;;;;7.49;63.74;94486.13;4193436;28;20059;-67
2023/12/25 05:45:34;;;;;;;14.55;7.32;;;;;;;7.51;63.58;94510.28;4184140;28;20484;-66
2023/12/25 05:47:36;;;;;;;13.95;7.60;;;;;;;7.58;62.76;94526.97;4186782;28;20068;-66
2023/12/25 05:49:38;;;;;;;15.32;8.20;;;;;;;7.48;62.81;94518.38;4187276;28;20055;-67
2023/12/25 05:51:41;;;;;;;15.00;7.72;;;;;;;7.22;64.26;94515.59;4174172;28;20057;-69
2023/12/25 05:53:43;;;;;;;15.57;7.50;;;;;;;7.29;64.34;94520.13;4174426;28;20052;-68
2023/12/25 05:55:45;;;;;;;13.63;7.43;;;;;;;7.32;64.01;94508.56;4189249;28;20697;-67
2023/12/25 05:57:48;;;;;;;13.95;8.05;;;;;;;7.40;63.68;94516.50;4188022;28;20052;-67
2023/12/25 05:59:50;;;;;;;16.10;7.82;;;;;;;7.53;63.64;94490.09;4191748;28;20044;-67
2023/12/25 06:01:52;;;;;;;16.77;7.38;;;;;;;7.63;63.28;94495.25;4191708;28;20049;-67
2023/12/25 06:03:53;;;;;;;12.55;6.97;;;;;;;7.70;62.85;94504.97;4174932;28;20127;-67
2023/12/25 06:05:55;;;;;;;11.88;6.93;;;;;;;7.75;62.55;94514.94;4192917;28;20049;-68
2023/12/25 06:07:58;;;;;;;11.30;7.75;;;;;;;7.48;62.84;94505.34;4173832;28;20049;-66
2023/12/25 06:10:00;;;;;;;15.20;7.65;;;;;;;7.43;62.95;94518.81;4188199;28;20052;-67
2023/12/25 06:12:02;;;;;;;12.50;7.32;;;;;;;7.43;63.41;94534.44;4189874;28;20053;-68
2023/12/25 06:14:05;;;;;;;14.23;6.57;;;;;;;7.07;63.99;94549.09;4192532;28;20064;-68
2023/12/25 06:16:09;;;;;;;15.63;7.40;;;;;;;6.94;64.26;94554.63;4191410;28;20574;-69
2023/12/25 06:18:11;;;;;;;15.05;8.02;;;;;;;6.49;65.83;94555.22;4190480;28;20040;-67
2023/12/25 06:20:13;;;;;;;16.58;7.53;;;;;;;6.68;66.11;94563.00;4191248;28;20050;-68
2023/12/25 06:22:19;;;;;;;14.07;7.35;;;;;;;6.90;65.46;94577.50;4190955;28;20380;-69
2023/12/25 06:24:21;;;;;;;13.70;7.20;;;;;;;7.14;64.72;94584.03;4192206;28;20466;-68
2023/12/25 06:26:23;;;;;;;14.27;7.65;;;;;;;7.34;63.99;94584.81;4178572;28;20118;-68
2023/12/25 06:28:25;;;;;;;16.42;7.40;;;;;;;7.58;63.54;94607.78;4188455;28;20101;-67
2023/12/25 06:30:27;;;;;;;15.27;7.43;;;;;;;7.67;62.78;94583.44;4186700;28;20324;-68
2023/12/25 06:32:29;;;;;;;14.43;6.93;;;;;;;7.86;62.23;94579.13;4189577;28;20091;-68
2023/12/25 06:34:31;;;;;;;12.00;6.90;;;;;;;8.25;61.31;94576.28;4189391;28;20673;-69
2023/12/25 06:36:33;;;;;;;11.55;5.95;;;;;;;8.73;60.52;94559.44;4171829;28;20111;-69
2023/12/25 06:38:35;;;;;;;15.13;6.95;;;;;;;9.23;58.22;94554.41;4192789;28;20458;-67
2023/12/25 06:40:37;;;;;;;10.80;6.25;;;;;;;9.61;56.34;94551.50;4189533;28;20565;-69
2023/12/25 06:42:38;;;;;;;11.50;6.18;;;;;;;9.79;56.40;94547.00;4191187;28;20661;-69
2023/12/25 06:44:40;;;;;;;20.25;7.13;;;;;;;9.91;56.12;94538.88;4172890;28;20514;-67
2023/12/25 06:46:42;;;;;;;13.45;6.35;;;;;;;9.54;56.02;94555.72;4192071;28;20464;-69
2023/12/25 06:48:44;;;;;;;13.88;6.35;;;;;;;8.43;59.04;94565.88;4187396;28;20146;-67
2023/12/25 06:50:48;;;;;;;11.73;6.28;;;;;;;8.23;60.83;94565.16;4191774;28;20044;-69
2023/12/25 06:52:50;;;;;;;12.10;7.07;;;;;;;8.34;60.26;94563.16;4174012;28;20135;-68
2023/12/25 06:54:52;;;;;;;12.18;7.22;;;;;;;8.46;59.12;94571.63;4179334;28;20040;-68
2023/12/25 06:56:54;;;;;;;11.38;6.53;;;;;;;7.86;61.59;94592.16;4184015;28;20103;-69
2023/12/25 06:58:56;;;;;;;15.52;6.95;;;;;;;7.68;61.83;94582.50;4188262;28;20080;-69
2023/12/25 07:00:59;;;;;;;13.18;6.55;;;;;;;7.91;62.15;94571.66;4185746;28;20124;-69
2023/12/25 07:03:01;;;;;;;14.25;6.32;;;;;;;8.06;61.17;94585.03;4187186;28;20048;-68
2023/12/25 07:05:07;;;;;;;13.57;6.57;;;;;;;8.18;60.79;94589.91;4192604;28;20462;-67
2023/12/25 07:07:09;;;;;;;13.77;6.82;;;;;;;8.39;60.44;94586.22;4180376;28;20044;-67
2023/12/25 07:09:14;;;;;;;15.73;6.38;;;;;;;8.62;60.05;94578.78;4184768;28;20036;-68
2023/12/25 07:11:16;;;;;;;13.43;6.15;;;;;;;8.82;59.09;94587.28;4183097;28;20106;-69
2023/12/25 07:13:18;;;;;;;17.95;9.02;;;;;;;8.93;58.83;94584.44;4189115;28;20066;-67
2023/12/25 07:15:19;;;;;;;18.13;6.97;;;;;;;9.06;58.12;94578.81;4170873;28;20421;-70
2023/12/25 07:17:21;;;;;;;13.27;6.63;;;;;;;9.07;57.88;94583.03;4189599;28;20495;-68
2023/12/25 07:19:23;;;;;;;12.60;5.60;;;;;;;8.85;58.05;94596.59;4185169;28;20452;-70
2023/12/25 07:21:25;;;;;;;17.52;6.55;;;;;;;8.82;58.05;94587.28;4182818;28;20056;-71
2023/12/25 07:23:27;;;;;;;13.55;6.30;;;;;;;8.87;58.61;94579.81;4191593;28;20413;-71
2023/12/25 07:25:29;;;;;;;11.35;6.45;;;;;;;9.00;58.22;94590.69;4185404;28;20080;-68
2023/12/25 07:27:32;;;;;;;12.70;6.10;;;;;;;9.25;57.65;94588.25;4173987;28;20041;-68
2023/12/25 07:29:34;;;;;;;13.77;6.50;;;;;;;9.46;57.31;94587.88;4189096;28;20044;-67
2023/12/25 07:31:36;;;;;;;11.07;6.43;;;;;;;9.63;57.70;94600.06;4191314;28;20765;-68
2023/12/25 07:33:38;;;;;;;16.83;6.35;;;;;;;9.77;57.29;94603.91;4188607;28;20049;-69
2023/12/25 07:35:40;;;;;;;14.05;6.28;;;;;;;9.91;56.40;94604.28;4189032;28;20120;-67
2023/12/25 07:37:42;;;;;;;15.20;7.03;;;;;;;9.97;55.68;94601.03;4191892;28;20391;-69
2023/12/25 07:39:44;;;;;;;16.25;6.97;;;;;;;10.06;56.60;94589.63;4191270;28;20044;-69
2023/12/25 07:41:46;;;;;;;16.58;7.47;;;;;;;10.16;56.07;94606.00;4187629;28;20147;-68
2023/12/25 07:43:48;;;;;;;17.60;6.80;;;;;;;10.08;54.64;94615.63;4173517;28;20083;-69
2023/12/25 07:45:50;;;;;;;13.75;6.03;;;;;;;9.53;55.91;94604.59;4190790;28;20345;-68
2023/12/25 07:47:52;;;;;;;10.20;6.15;;;;;;;9.61;57.00;94617.72;4190467;28;20417;-68
2023/12/25 07:49:54;;;;;;;10.40;5.43;;;;;;;9.82;56.47;94617.31;4185418;28;20079;-69
2023/12/25 07:51:57;;;;;;;14.98;6.40;;;;;;;10.02;55.77;94617.06;4189254;28;20123;-69
2023/12/25 07:54:00;;;;;;;12.68;6.40;;;;;;;10.24;55.40;94613.91;4189185;28;20045;-69
2023/12/25 07:56:02;;;;;;;17.23;6.60;;;;;;;10.48;55.53;94614.97;4186819;28;20622;-68
2023/12/25 07:58:04;;;;;;;11.25;6.70;;;;;;;10.69;54.56;94621.53;4186367;28;20292;-69
2023/12/25 08:00:07;;;;;;;12.85;6.95;;;;;;;10.83;53.77;94623.53;4188455;28;20059;-69
2023/12/25 08:02:09;;;;;;;10.85;5.80;;;;;;;10.94;53.02;94612.72;4186186;28;20131;-70
2023/12/25 08:04:11;;;;;;;13.60;5.78;;;;;;;11.06;52.65;94597.50;4193148;28;20067;-68
2023/12/25 08:06:13;;;;;;;9.75;5.18;;;;;;;11.18;52.60;94603.22;4165428;28;20099;-67
2023/12/25 08:08:15;;;;;;;12.10;5.60;;;;;;;11.28;52.12;94594.19;4186042;28;20116;-70
2023/12/25 08:10:17;;;;;;;14.00;6.20;;;;;;;11.38;51.95;94591.41;4182831;28;20459;-68
2023/12/25 08:12:19;;;;;;;15.32;6.45;;;;;;;11.41;51.70;94600.75;4189454;28;20083;-69
2023/12/25 08:14:21;;;;;;;11.07;6.63;;;;;;;11.43;51.60;94596.97;4191896;28;20356;-70
2023/12/25 08:16:23;;;;;;;16.50;6.35;;;;;;;11.40;51.42;94597.31;4184730;28;20529;-69
2023/12/25 08:18:25;;;;;;;14.85;6.13;;;;;;;11.45;51.24;94616.00;4191219;28;20082;-70
2023/12/25 08:20:27;;;;;;;14.07;6.25;;;;;;;11.20;51.71;94620.44;4190134;28;20082;-70
2023/12/25 08:22:29;;;;;;;12.30;5.80;;;;;;;10.85;52.13;94619.78;4183854;28;20191;-67
2023/12/25 08:24:31;;;;;;;14.00;5.78;;;;;;;10.92;52.73;94625.19;4184749;28;20044;-69
2023/12/25 08:26:33;;;;;;;13.77;6.47;;;;;;;11.17;52.31;94606.84;4187516;28;20463;-70
2023/12/25 08:28:37;;;;;;;12.73;6.18;;;;;;;11.38;51.51;94598.44;4188623;28;20518;-70
2023/12/25 08:30:39;;;;;;;14.73;6.22;;;;;;;11.56;51.11;94601.72;4192102;28;20048;-69
2023/12/25 08:32:40;;;;;;;11.05;5.75;;;;;;;11.77;50.91;94595.91;4191486;28;20060;-70
2023/12/25 08:34:43;;;;;;;11.07;6.40;;;;;;;11.92;50.35;94596.06;4185681;28;20144;-71
2023/12/25 08:36:45;;;;;;;13.13;5.90;;;;;;;12.01;50.40;94602.09;4176738;28;20063;-70
2023/12/25 08:38:47;;;;;;;11.15;5.65;;;;;;;12.12;49.81;94614.03;4192002;28;20055;-70
2023/12/25 08:40:49;;;;;;;12.75;6.13;;;;;;;12.23;49.82;94606.59;4174417;28;20056;-71
2023/12/25 08:42:51;;;;;;;10.20;5.40;;;;;;;12.36;49.52;94611.28;4191133;28;20096;-67
2023/12/25 08:44:53;;;;;;;13.98;5.50;;;;;;;12.44;48.68;94610.44;4190489;28;20511;-69
2023/12/25 08:46:55;;;;;;;14.82;6.03;;;;;;;12.54;48.58;94605.78;4194704;28;20048;-68
2023/12/25 08:48:56;;;;;;;11.23;5.68;;;;;;;12.67;48.52;94599.97;4193577;28;20128;-69
2023/12/25 08:50:58;;;;;;;11.38;5.07;;;;;;;12.81;48.05;94596.56;4188992;28;20505;-70
2023/12/25 08:53:00;;;;;;;12.18;5.28;;;;;;;12.87;47.84;94593.25;4194417;28;20066;-70
2023/12/25 08:55:02;;;;;;;8.82;4.53;;;;;;;12.88;47.55;94601.94;4173031;28;20056;-71
2023/12/25 08:57:04;;;;;;;11.20;4.57;;;;;;;12.96;47.14;94598.44;4194410;28;20130;-69
2023/12/25 08:59:07;;;;;;;7.07;4.32;;;;;;;12.94;47.08;94595.97;4185910;28;20087;-70
2023/12/25 09:01:09;;;;;;;10.73;4.60;;;;;;;12.99;47.42;94582.31;4190820;28;20041;-69
2023/12/25 09:03:11;;;;;;;10.10;4.60;;;;;;;13.01;47.00;94575.88;4189573;28;20404;-70
2023/12/25 09:05:13;;;;;;;9.55;4.43;;;;;;;13.05;46.94;94571.88;4199084;28;20048;-68
2023/12/25 09:07:16;;;;;;;10.38;4.95;;;;;;;13.17;46.81;94585.44;4176108;28;20045;-70
2023/12/25 09:09:19;;;;;;;8.65;4.97;;;;;;;13.28;46.51;94590.31;4186491;28;20131;-67
2023/12/25 09:11:21;;;;;;;13.80;5.72;;;;;;;13.19;46.14;94578.19;4174105;28;20084;-70
2023/12/25 09:13:23;;;;;;;11.43;4.55;;;;;;;13.17;46.40;94580.19;4191076;28;20070;-69
2023/12/25 09:15:25;;;;;;;10.98;5.40;;;;;;;13.25;46.58;94581.91;4171821;28;20049;-70
2023/12/25 09:17:27;;;;;;;11.45;5.50;;;;;;;13.06;46.22;94576.19;4189395;28;20139;-70
2023/12/25 09:19:29;;;;;;;11.30;5.43;;;;;;;13.13;46.36;94572.84;4190316;28;20037;-68
2023/12/25 09:21:43;;;;;;;12.90;4.80;;;;;;;13.10;46.24;94569.56;4185848;28;20052;-67
2023/12/25 09:23:45;;;;;;;12.52;6.28;;;;;;;13.20;46.62;94564.03;4192529;28;20479;-70
2023/12/25 09:25:47;;;;;;;12.55;5.38;;;;;;;13.43;46.41;94547.44;4172118;28;20682;-70
2023/12/25 09:27:49;;;;;;;11.65;5.20;;;;;;;13.63;45.73;94550.34;4189778;28;20044;-68
2023/12/25 09:29:51;;;;;;;10.88;4.32;;;;;;;13.56;45.05;94552.88;4191312;28;20115;-70
2023/12/25 09:31:53;;;;;;;12.23;5.30;;;;;;;13.06;45.40;94557.75;4193699;28;20088;-69